Time;durP1;ratioP1;P1;durP2;ratioP2;P2;SDS_P1;SDS_P2;PMS_P1;PMS_P2;Temp;Humidity;BMP_temperature;BMP_pressure;BME280_temperature;BME280_humidity;BME280_pressure;Samples;Min_cycle;Max_cycle;Signal;HPM_P1;HPM_P2
2022/12/15 00:40:23;;;;;;;5.85;2.67;;;;;;;;;;5119499;27;20051;-85
2022/12/15 00:42:49;;;;;;;6.45;4.00;;;;;;;;;;5099485;27;20124;-84
2022/12/15 00:45:15;;;;;;;5.60;3.25;;;;;;;;;;5133076;27;20049;-85
2022/12/15 00:47:41;;;;;;;7.05;3.83;;;;;;;;;;5116524;27;20081;-84
2022/12/15 01:20:22;;;;;;;4.68;3.67;;;;;;;;;;5118345;27;20183;-88
2022/12/15 01:22:49;;;;;;;7.00;4.15;;;;;;;;;;5098585;27;20056;-88
2022/12/15 01:25:17;;;;;;;6.00;3.63;;;;;;;;;;5132746;27;20078;-88
2022/12/15 01:27:43;;;;;;;7.93;3.45;;;;;;;;;;5115877;27;20120;-88
2022/12/15 01:30:10;;;;;;;6.47;4.50;;;;;;;;;;5098909;27;20047;-88
2022/12/15 01:32:36;;;;;;;7.18;4.38;;;;;;;;;;5115514;27;20047;-88
2022/12/15 01:35:03;;;;;;;6.68;4.22;;;;;;;;;;5132896;27;20131;-88
2022/12/15 01:37:29;;;;;;;5.88;4.00;;;;;;;;;;5115330;27;20043;-88
2022/12/15 01:42:40;;;;;;;5.97;3.42;;;;;;;;;;5117832;27;20107;-87
2022/12/15 01:45:24;;;;;;;6.03;4.80;;;;;;;;;;5115333;27;20477;-85
2022/12/15 01:47:51;;;;;;;11.55;4.03;;;;;;;;;;5115122;27;20045;-84
2022/12/15 01:50:18;;;;;;;5.35;3.47;;;;;;;;;;5115404;27;20047;-85
2022/12/15 01:52:44;;;;;;;8.57;3.38;;;;;;;;;;5115085;27;20046;-89
2022/12/15 01:55:10;;;;;;;8.80;4.05;;;;;;;;;;5098522;27;20441;-85
2022/12/15 01:57:37;;;;;;;5.13;3.35;;;;;;;;;;5115372;27;20472;-83
2022/12/15 02:00:06;;;;;;;3.85;3.15;;;;;;;;;;5114934;27;20495;-85
2022/12/15 02:02:32;;;;;;;4.28;2.95;;;;;;;;;;5114987;27;20130;-85
2022/12/15 02:05:00;;;;;;;7.15;3.25;;;;;;;;;;5132204;27;20035;-87
2022/12/15 02:07:26;;;;;;;4.88;3.35;;;;;;;;;;5143712;27;20043;-82
2022/12/15 02:09:54;;;;;;;4.45;2.60;;;;;;;;;;5143913;27;20035;-83
2022/12/15 02:12:41;;;;;;;5.45;2.38;;;;;;;;;;5126925;27;20197;-83
2022/12/15 02:15:17;;;;;;;4.75;3.30;;;;;;;;;;5121377;27;20039;-86
2022/12/15 02:17:49;;;;;;;3.53;2.53;;;;;;;;;;5115736;27;20043;-83
2022/12/15 02:20:35;;;;;;;3.35;2.80;;;;;;;;;;5132572;27;20046;-84
2022/12/15 02:23:10;;;;;;;4.25;2.72;;;;;;;;;;5115033;27;20054;-87
2022/12/15 02:25:50;;;;;;;6.47;2.13;;;;;;;;;;5115425;27;20043;-88
2022/12/15 02:28:27;;;;;;;5.60;3.00;;;;;;;;;;5132360;27;20043;-91
2022/12/15 02:34:11;;;;;;;5.60;2.28;;;;;;;;;;5132482;28;20051;-83
2022/12/15 02:36:39;;;;;;;6.50;2.40;;;;;;;;;;5132980;28;20061;-87
2022/12/15 02:39:05;;;;;;;4.85;2.65;;;;;;;;;;5115283;28;20487;-83
2022/12/15 02:41:39;;;;;;;8.63;2.55;;;;;;;;;;5115041;28;20093;-85
2022/12/15 02:44:11;;;;;;;4.25;2.38;;;;;;;;;;5132961;27;20035;-88
2022/12/15 02:46:40;;;;;;;3.22;2.00;;;;;;;;;;5114379;28;20039;-86
2022/12/15 02:49:14;;;;;;;7.57;2.58;;;;;;;;;;5132023;28;20487;-83
2022/12/15 02:51:49;;;;;;;2.25;1.95;;;;;;;;;;5131678;27;20049;-83
2022/12/15 02:54:18;;;;;;;2.67;2.13;;;;;;;;;;5131435;27;20035;-83
2022/12/15 02:57:02;;;;;;;7.47;2.03;;;;;;;;;;5114123;27;20091;-83
2022/12/15 02:59:35;;;;;;;6.35;2.67;;;;;;;;;;5114209;28;20035;-83
2022/12/15 03:02:04;;;;;;;10.32;2.45;;;;;;;;;;5131268;27;20057;-82
2022/12/15 03:04:32;;;;;;;10.10;1.80;;;;;;;;;;5114609;28;20042;-83
2022/12/15 03:07:01;;;;;;;5.70;1.80;;;;;;;;;;5114030;28;20054;-82
2022/12/15 03:09:28;;;;;;;5.93;1.58;;;;;;;;;;5114285;28;20043;-83
2022/12/15 03:11:54;;;;;;;4.30;1.83;;;;;;;;;;5114220;27;20176;-83
2022/12/15 03:14:20;;;;;;;3.83;1.50;;;;;;;;;;5131260;28;20047;-83
2022/12/15 03:16:46;;;;;;;2.88;1.95;;;;;;;;;;5114125;28;20044;-82
2022/12/15 03:19:12;;;;;;;4.88;1.65;;;;;;;;;;5097164;28;20043;-84
2022/12/15 03:21:38;;;;;;;3.00;1.50;;;;;;;;;;5134246;27;20051;-83
2022/12/15 03:24:04;;;;;;;8.48;2.13;;;;;;;;;;5101420;27;20172;-83
2022/12/15 03:26:30;;;;;;;5.45;1.40;;;;;;;;;;5118363;27;20482;-87
2022/12/15 03:28:56;;;;;;;12.05;1.67;;;;;;;;;;5117899;27;20050;-84
2022/12/15 03:31:22;;;;;;;3.85;1.40;;;;;;;;;;5117625;27;20139;-82
2022/12/15 03:33:48;;;;;;;7.15;1.63;;;;;;;;;;5117867;27;20050;-83
2022/12/15 03:36:14;;;;;;;3.17;1.30;;;;;;;;;;5117930;27;20039;-83
2022/12/15 03:38:40;;;;;;;6.93;2.20;;;;;;;;;;5117951;27;20051;-83
2022/12/15 03:41:06;;;;;;;2.67;1.33;;;;;;;;;;5117871;27;20038;-82
2022/12/15 03:43:32;;;;;;;3.45;1.70;;;;;;;;;;5117624;27;20495;-83
2022/12/15 03:45:59;;;;;;;2.55;2.05;;;;;;;;;;5100875;27;20047;-82
2022/12/15 03:48:25;;;;;;;2.42;1.60;;;;;;;;;;5117930;27;20379;-83
2022/12/15 03:50:51;;;;;;;3.95;1.50;;;;;;;;;;5118309;27;20458;-82
2022/12/15 03:53:17;;;;;;;3.38;1.45;;;;;;;;;;5102109;27;20475;-84
2022/12/15 03:55:43;;;;;;;2.30;1.67;;;;;;;;;;5102313;27;20106;-82
2022/12/15 03:58:09;;;;;;;5.70;1.58;;;;;;;;;;5118937;27;20046;-83
2022/12/15 04:00:35;;;;;;;4.00;1.40;;;;;;;;;;5101930;27;20081;-82
2022/12/15 04:03:01;;;;;;;4.45;1.58;;;;;;;;;;5100861;27;20393;-83
2022/12/15 04:05:28;;;;;;;6.10;1.98;;;;;;;;;;5100966;27;20419;-83
2022/12/15 04:07:55;;;;;;;6.32;1.88;;;;;;;;;;5117380;27;20521;-82
2022/12/15 04:10:22;;;;;;;6.03;1.98;;;;;;;;;;5117657;27;20533;-82
2022/12/15 04:12:48;;;;;;;2.88;1.10;;;;;;;;;;5118092;27;20042;-83
2022/12/15 04:15:15;;;;;;;8.20;1.55;;;;;;;;;;5117291;27;20085;-87
2022/12/15 04:17:41;;;;;;;2.97;2.28;;;;;;;;;;5117514;27;20043;-83
2022/12/15 04:20:08;;;;;;;4.47;2.03;;;;;;;;;;5117412;27;20099;-88
2022/12/15 04:22:34;;;;;;;3.78;1.83;;;;;;;;;;5100203;27;20513;-87
2022/12/15 05:33:42;;;;;;;4.30;2.42;;;;;;;;;;5118527;27;20042;-85
2022/12/15 05:36:08;;;;;;;7.32;4.30;;;;;;;;;;5099076;27;20086;-86
2022/12/15 05:38:34;;;;;;;3.03;2.50;;;;;;;;;;5098843;27;20049;-87
2022/12/15 05:41:00;;;;;;;3.45;2.88;;;;;;;;;;5132944;27;20047;-85
2022/12/15 05:43:27;;;;;;;8.07;2.97;;;;;;;;;;5132265;27;20547;-85
2022/12/15 05:45:56;;;;;;;6.38;3.47;;;;;;;;;;5115944;27;20035;-86
2022/12/15 05:48:22;;;;;;;4.68;2.88;;;;;;;;;;5116370;27;20039;-86
2022/12/15 05:50:49;;;;;;;5.78;2.70;;;;;;;;;;5117038;27;20043;-85
2022/12/15 05:53:15;;;;;;;4.97;2.90;;;;;;;;;;5116571;27;20039;-85
2022/12/15 05:55:41;;;;;;;3.78;2.63;;;;;;;;;;5116025;27;20043;-86
2022/12/15 05:58:07;;;;;;;4.32;2.55;;;;;;;;;;5099033;27;20055;-87
2022/12/15 06:00:33;;;;;;;4.47;3.10;;;;;;;;;;5115913;27;20039;-87
2022/12/15 06:03:01;;;;;;;9.25;2.88;;;;;;;;;;5115957;27;20044;-87
2022/12/15 06:05:27;;;;;;;7.85;2.58;;;;;;;;;;5116245;27;20057;-86
2022/12/15 06:07:53;;;;;;;8.63;2.90;;;;;;;;;;5116483;27;20104;-85
2022/12/15 06:10:19;;;;;;;4.82;3.35;;;;;;;;;;5132893;27;20035;-88
2022/12/15 06:12:46;;;;;;;12.85;3.83;;;;;;;;;;5132708;27;20563;-83
2022/12/15 06:15:17;;;;;;;7.70;3.53;;;;;;;;;;5100367;27;20039;-82
2022/12/15 06:17:43;;;;;;;6.70;3.15;;;;;;;;;;5098429;28;20043;-83
2022/12/15 06:20:10;;;;;;;12.15;2.90;;;;;;;;;;5115634;27;20380;-86
2022/12/15 06:22:36;;;;;;;4.18;2.58;;;;;;;;;;5131764;27;20059;-88
2022/12/15 06:25:02;;;;;;;8.88;2.97;;;;;;;;;;5098361;28;20043;-84
2022/12/15 06:27:35;;;;;;;4.93;2.85;;;;;;;;;;5100384;27;20047;-85
2022/12/15 06:30:03;;;;;;;7.35;2.97;;;;;;;;;;5115451;27;20046;-85
2022/12/15 06:32:29;;;;;;;6.53;3.22;;;;;;;;;;5115229;27;20039;-84
2022/12/15 06:34:55;;;;;;;5.53;3.33;;;;;;;;;;5098480;28;20078;-85
2022/12/15 06:37:21;;;;;;;4.10;2.80;;;;;;;;;;5132341;28;20047;-85
2022/12/15 06:39:47;;;;;;;11.38;2.63;;;;;;;;;;5115097;27;20042;-82
2022/12/15 06:42:13;;;;;;;4.47;2.92;;;;;;;;;;5115238;28;20047;-82
2022/12/15 06:44:39;;;;;;;5.07;3.30;;;;;;;;;;5126041;28;20039;-81
2022/12/15 06:47:09;;;;;;;6.28;3.03;;;;;;;;;;5141286;27;20039;-86
2022/12/15 06:49:35;;;;;;;6.35;3.53;;;;;;;;;;5136665;27;20043;-81
2022/12/15 06:52:01;;;;;;;3.17;2.40;;;;;;;;;;5118417;28;20060;-81
2022/12/15 06:54:27;;;;;;;5.85;2.47;;;;;;;;;;5135879;27;20082;-92
2022/12/15 06:56:53;;;;;;;7.95;3.03;;;;;;;;;;5120388;27;20035;-85
2022/12/15 06:59:19;;;;;;;3.75;2.60;;;;;;;;;;5103268;27;20046;-88
2022/12/15 07:01:45;;;;;;;9.25;3.50;;;;;;;;;;5136655;27;20043;-85
2022/12/15 07:04:11;;;;;;;11.02;4.22;;;;;;;;;;5119321;27;20043;-86
2022/12/15 07:06:37;;;;;;;7.90;4.63;;;;;;;;;;5136226;27;20064;-91
2022/12/15 07:09:06;;;;;;;6.07;3.60;;;;;;;;;;5119338;27;20391;-87
2022/12/15 07:11:32;;;;;;;16.95;3.70;;;;;;;;;;5118984;27;20054;-82
2022/12/15 07:13:58;;;;;;;5.32;3.33;;;;;;;;;;5135924;27;20051;-83
2022/12/15 07:16:24;;;;;;;8.77;4.47;;;;;;;;;;5101997;27;20100;-89
2022/12/15 07:18:50;;;;;;;6.07;4.40;;;;;;;;;;5118565;27;20126;-85
2022/12/15 07:21:16;;;;;;;5.80;4.38;;;;;;;;;;5118279;27;20059;-82
2022/12/15 07:23:42;;;;;;;6.47;4.18;;;;;;;;;;5118311;27;20104;-88
2022/12/15 07:26:09;;;;;;;5.85;3.80;;;;;;;;;;5118437;27;20542;-81
2022/12/15 07:28:35;;;;;;;9.38;4.93;;;;;;;;;;5135633;27;20487;-83
2022/12/15 07:31:02;;;;;;;9.65;4.68;;;;;;;;;;5135658;27;20045;-84
2022/12/15 07:33:29;;;;;;;7.35;4.65;;;;;;;;;;5135819;27;20070;-91
2022/12/15 07:35:55;;;;;;;7.72;4.88;;;;;;;;;;5101545;27;20155;-84
2022/12/15 07:38:21;;;;;;;11.93;5.60;;;;;;;;;;5118272;27;20043;-86
2022/12/15 07:40:48;;;;;;;9.52;5.40;;;;;;;;;;5118845;27;20403;-86
2022/12/15 07:43:14;;;;;;;20.25;5.35;;;;;;;;;;5134766;27;20100;-86
2022/12/15 07:45:40;;;;;;;8.80;4.63;;;;;;;;;;5100828;27;20114;-84
2022/12/15 07:48:06;;;;;;;7.75;5.00;;;;;;;;;;5117798;27;20406;-81
2022/12/15 07:50:32;;;;;;;17.58;5.15;;;;;;;;;;5134835;27;20210;-85
2022/12/15 07:52:58;;;;;;;7.97;4.75;;;;;;;;;;5117646;27;20039;-87
2022/12/15 07:55:24;;;;;;;9.15;5.43;;;;;;;;;;5100724;27;20130;-85
2022/12/15 07:57:50;;;;;;;15.27;5.47;;;;;;;;;;5100885;27;20039;-86
2022/12/15 08:00:18;;;;;;;12.23;4.80;;;;;;;;;;5117500;27;20035;-84
2022/12/15 08:02:44;;;;;;;15.52;4.72;;;;;;;;;;5100677;27;20085;-88
2022/12/15 08:05:10;;;;;;;5.80;4.47;;;;;;;;;;5134603;27;20556;-86
2022/12/15 08:07:36;;;;;;;8.32;4.90;;;;;;;;;;5133998;27;20047;-88
2022/12/15 08:10:02;;;;;;;6.78;4.63;;;;;;;;;;5134552;27;20134;-88
2022/12/15 08:12:28;;;;;;;7.53;5.00;;;;;;;;;;5117447;27;20537;-86
2022/12/15 08:14:54;;;;;;;7.95;5.03;;;;;;;;;;5117394;27;20035;-85
2022/12/15 08:17:20;;;;;;;8.40;4.57;;;;;;;;;;5117429;27;20095;-86
2022/12/15 08:19:46;;;;;;;9.35;5.68;;;;;;;;;;5134123;27;20042;-88
2022/12/15 08:22:14;;;;;;;13.13;4.47;;;;;;;;;;5099973;27;20069;-86
2022/12/15 08:24:40;;;;;;;10.27;4.30;;;;;;;;;;5100444;27;20130;-90
2022/12/15 08:27:07;;;;;;;8.95;4.65;;;;;;;;;;5134893;27;20098;-90
2022/12/15 08:29:33;;;;;;;10.20;4.88;;;;;;;;;;5100542;27;20047;-90
2022/12/15 08:31:59;;;;;;;7.63;5.00;;;;;;;;;;5117140;27;20486;-88
2022/12/15 08:34:25;;;;;;;9.10;4.97;;;;;;;;;;5117567;27;20062;-85
2022/12/15 08:36:51;;;;;;;8.02;5.18;;;;;;;;;;5117306;27;20479;-89
2022/12/15 08:39:18;;;;;;;16.20;5.25;;;;;;;;;;5147499;27;20043;-82
2022/12/15 08:41:44;;;;;;;9.57;5.43;;;;;;;;;;5129985;27;20043;-82
2022/12/15 08:44:10;;;;;;;11.10;5.65;;;;;;;;;;5148230;27;20437;-81
2022/12/15 08:46:36;;;;;;;7.28;5.18;;;;;;;;;;5132441;27;20064;-82
2022/12/15 08:49:03;;;;;;;13.63;6.57;;;;;;;;;;5145091;27;20039;-92
2022/12/15 08:51:30;;;;;;;7.03;4.57;;;;;;;;;;5102325;27;20039;-89
2022/12/15 08:53:56;;;;;;;14.13;5.07;;;;;;;;;;5118913;27;20031;-94
2022/12/15 08:56:23;;;;;;;10.77;3.95;;;;;;;;;;5135453;27;20091;-93
2022/12/15 08:58:50;;;;;;;10.93;5.25;;;;;;;;;;5102830;27;20447;-95
2022/12/15 09:01:19;;;;;;;9.18;5.63;;;;;;;;;;5135494;27;20036;-92
2022/12/15 09:03:45;;;;;;;8.77;5.10;;;;;;;;;;5118864;27;20095;-95
2022/12/15 09:06:13;;;;;;;10.13;5.88;;;;;;;;;;5102867;27;20039;-85
2022/12/15 09:08:39;;;;;;;8.95;5.07;;;;;;;;;;5117666;27;20051;-85
2022/12/15 09:11:05;;;;;;;7.78;5.30;;;;;;;;;;5116921;27;20044;-83
2022/12/15 09:13:32;;;;;;;10.13;5.85;;;;;;;;;;5116409;27;20043;-84
2022/12/15 09:15:59;;;;;;;6.95;5.00;;;;;;;;;;5116430;27;20074;-84
2022/12/15 09:18:25;;;;;;;9.00;5.38;;;;;;;;;;5116442;27;20054;-85
2022/12/15 09:20:51;;;;;;;12.60;5.78;;;;;;;;;;5099408;27;20046;-90
2022/12/15 09:23:17;;;;;;;9.60;4.80;;;;;;;;;;5116137;27;20134;-92
2022/12/15 09:25:43;;;;;;;12.82;5.93;;;;;;;;;;5116610;27;20043;-86
2022/12/15 09:28:09;;;;;;;8.00;5.47;;;;;;;;;;5116682;27;20117;-84
2022/12/15 09:30:35;;;;;;;9.07;5.43;;;;;;;;;;5116036;27;20183;-83
2022/12/15 09:33:01;;;;;;;8.85;5.40;;;;;;;;;;5116278;27;20043;-85
2022/12/15 09:35:27;;;;;;;9.43;6.57;;;;;;;;;;5116066;27;20043;-84
2022/12/15 09:37:53;;;;;;;15.13;6.00;;;;;;;;;;5116144;27;20430;-84
2022/12/15 09:40:19;;;;;;;10.68;6.22;;;;;;;;;;5132995;27;20035;-86
2022/12/15 09:42:51;;;;;;;9.10;6.15;;;;;;;;;;5115179;27;20051;-86
2022/12/15 09:45:30;;;;;;;10.00;5.93;;;;;;;;;;5132079;27;20042;-83
2022/12/15 09:48:02;;;;;;;10.65;6.32;;;;;;;;;;5115244;27;20043;-84
2022/12/15 09:50:37;;;;;;;9.45;5.50;;;;;;;;;;5115524;27;20385;-88
2022/12/15 09:53:03;;;;;;;10.45;7.07;;;;;;;;;;5132231;27;20062;-89
2022/12/15 09:55:31;;;;;;;14.02;7.03;;;;;;;;;;5097995;27;20039;-86
2022/12/15 09:58:12;;;;;;;13.38;6.55;;;;;;;;;;5132674;27;20185;-86
2022/12/15 10:00:38;;;;;;;9.70;6.68;;;;;;;;;;5115155;27;20501;-86
2022/12/15 10:03:08;;;;;;;9.10;5.97;;;;;;;;;;5114733;27;20043;-86
2022/12/15 10:05:43;;;;;;;8.32;5.75;;;;;;;;;;5115443;27;20047;-87
2022/12/15 10:08:09;;;;;;;10.43;6.40;;;;;;;;;;5132228;27;20046;-86
2022/12/15 10:10:35;;;;;;;12.60;6.05;;;;;;;;;;5115274;27;20075;-86
2022/12/15 10:13:04;;;;;;;10.35;6.03;;;;;;;;;;5131851;27;20085;-86
2022/12/15 10:15:33;;;;;;;8.52;6.25;;;;;;;;;;5114476;27;20510;-86
2022/12/15 10:18:05;;;;;;;10.95;6.25;;;;;;;;;;5114686;27;20043;-87
2022/12/15 10:20:32;;;;;;;12.05;6.35;;;;;;;;;;5114926;27;20049;-86
2022/12/15 10:23:18;;;;;;;11.43;5.70;;;;;;;;;;5114452;27;20096;-87
2022/12/15 10:25:49;;;;;;;8.73;5.90;;;;;;;;;;5131820;27;20039;-86
2022/12/15 10:28:24;;;;;;;9.32;5.93;;;;;;;;;;5115028;27;20513;-86
2022/12/15 10:30:51;;;;;;;11.00;5.93;;;;;;;;;;5114413;27;20047;-88
2022/12/15 10:33:19;;;;;;;10.80;5.70;;;;;;;;;;5114993;27;20535;-86
2022/12/15 10:35:45;;;;;;;14.02;6.88;;;;;;;;;;5131725;28;20483;-86
2022/12/15 10:38:23;;;;;;;16.80;5.78;;;;;;;;;;5114516;28;20517;-86
2022/12/15 10:40:51;;;;;;;17.15;6.40;;;;;;;;;;5114499;28;20092;-87
2022/12/15 10:43:29;;;;;;;9.75;6.18;;;;;;;;;;5114651;27;20139;-87
2022/12/15 10:46:04;;;;;;;8.57;6.05;;;;;;;;;;5114502;28;20376;-87
2022/12/15 10:48:30;;;;;;;20.77;6.72;;;;;;;;;;5114797;28;20085;-86
2022/12/15 10:51:14;;;;;;;7.82;6.15;;;;;;;;;;5114635;28;20046;-87
2022/12/15 10:53:42;;;;;;;8.98;6.18;;;;;;;;;;5132784;27;20046;-87
2022/12/15 10:56:08;;;;;;;7.10;5.65;;;;;;;;;;5133078;27;20095;-86
2022/12/15 10:58:45;;;;;;;6.88;5.65;;;;;;;;;;5114839;28;20376;-86
2022/12/15 11:01:16;;;;;;;10.13;6.32;;;;;;;;;;5131753;28;20043;-85
2022/12/15 11:03:42;;;;;;;11.00;8.45;;;;;;;;;;5131422;28;20180;-86
2022/12/15 11:06:35;;;;;;;12.27;6.25;;;;;;;;;;5097428;28;20501;-85
2022/12/15 11:09:22;;;;;;;11.13;5.70;;;;;;;;;;5111898;28;20054;-87
2022/12/15 11:14:44;;;;;;;11.20;5.45;;;;;;;;;;5116592;27;20043;-87
2022/12/15 11:17:14;;;;;;;8.07;5.10;;;;;;;;;;5131403;28;20481;-85
2022/12/15 11:19:48;;;;;;;13.63;6.40;;;;;;;;;;5114154;28;20035;-84
2022/12/15 11:22:20;;;;;;;14.70;5.05;;;;;;;;;;5131132;28;20111;-85
2022/12/15 11:24:52;;;;;;;9.93;5.43;;;;;;;;;;5114043;27;20472;-86
2022/12/15 11:27:21;;;;;;;11.05;5.68;;;;;;;;;;5131239;28;20035;-84
2022/12/15 11:29:56;;;;;;;10.20;4.78;;;;;;;;;;5114110;28;20039;-85
2022/12/15 11:32:24;;;;;;;9.80;5.88;;;;;;;;;;5114085;28;20039;-85
2022/12/15 11:34:51;;;;;;;6.32;4.55;;;;;;;;;;5131321;27;20084;-85
2022/12/15 11:37:17;;;;;;;9.25;5.25;;;;;;;;;;5097197;28;20043;-85
2022/12/15 11:39:53;;;;;;;9.60;5.35;;;;;;;;;;5113893;28;20556;-87
2022/12/15 11:42:48;;;;;;;6.35;4.63;;;;;;;;;;5116469;27;20493;-86
2022/12/15 11:45:21;;;;;;;10.07;4.40;;;;;;;;;;5104297;27;20058;-87
2022/12/15 11:47:49;;;;;;;10.70;4.13;;;;;;;;;;5117439;27;20050;-85
2022/12/15 11:50:24;;;;;;;10.45;4.22;;;;;;;;;;5118047;27;20050;-87
2022/12/15 11:52:59;;;;;;;10.10;3.95;;;;;;;;;;5117514;27;20039;-85
2022/12/15 11:55:25;;;;;;;9.82;4.38;;;;;;;;;;5134636;27;20047;-87
2022/12/15 11:57:51;;;;;;;7.40;4.57;;;;;;;;;;5118261;27;20062;-89
2022/12/15 12:00:19;;;;;;;8.00;4.78;;;;;;;;;;5117593;27;20043;-89
2022/12/15 12:02:59;;;;;;;6.47;4.25;;;;;;;;;;5117658;27;20487;-90
2022/12/15 12:05:25;;;;;;;11.73;3.90;;;;;;;;;;5135016;27;20051;-90
2022/12/15 12:07:54;;;;;;;11.52;4.82;;;;;;;;;;5134571;27;20042;-88
2022/12/15 12:10:30;;;;;;;8.18;4.30;;;;;;;;;;5134687;27;20131;-90
2022/12/15 12:13:02;;;;;;;8.15;4.63;;;;;;;;;;5117521;27;20080;-90
2022/12/15 12:15:34;;;;;;;10.02;5.30;;;;;;;;;;5117537;27;20054;-90
2022/12/15 12:18:19;;;;;;;12.25;3.88;;;;;;;;;;5117499;27;20031;-89
2022/12/15 12:20:50;;;;;;;7.53;5.32;;;;;;;;;;5117546;27;20399;-88
2022/12/15 12:23:19;;;;;;;9.43;5.53;;;;;;;;;;5134027;27;20055;-89
2022/12/15 12:25:57;;;;;;;6.15;3.92;;;;;;;;;;5117009;27;20035;-88
2022/12/15 12:28:27;;;;;;;9.52;5.35;;;;;;;;;;5117012;27;20039;-88
2022/12/15 12:30:54;;;;;;;10.68;4.70;;;;;;;;;;5117166;27;20053;-88
2022/12/15 12:33:33;;;;;;;5.93;4.43;;;;;;;;;;5117063;27;20058;-88
2022/12/15 12:36:02;;;;;;;8.63;4.50;;;;;;;;;;5116794;27;20047;-87
2022/12/15 12:38:35;;;;;;;10.02;4.25;;;;;;;;;;5116987;27;20391;-87
2022/12/15 12:41:01;;;;;;;9.45;4.50;;;;;;;;;;5116544;27;20039;-87
2022/12/15 12:43:32;;;;;;;5.93;3.78;;;;;;;;;;5116284;27;20078;-87
2022/12/15 12:46:16;;;;;;;12.40;4.88;;;;;;;;;;5133445;27;20043;-87
2022/12/15 12:48:48;;;;;;;8.13;4.80;;;;;;;;;;5133628;27;20043;-87
2022/12/15 12:51:21;;;;;;;7.28;5.03;;;;;;;;;;5116838;27;20070;-87
2022/12/15 12:53:48;;;;;;;7.35;4.18;;;;;;;;;;5133438;27;20039;-87
2022/12/15 12:56:35;;;;;;;7.95;3.80;;;;;;;;;;5099781;27;20039;-85
2022/12/15 12:59:06;;;;;;;5.97;3.72;;;;;;;;;;5116489;27;20043;-86
2022/12/15 13:01:33;;;;;;;10.38;4.57;;;;;;;;;;5116066;27;20043;-85
2022/12/15 13:04:07;;;;;;;7.68;4.63;;;;;;;;;;5116334;27;20096;-86
2022/12/15 13:06:36;;;;;;;6.55;3.83;;;;;;;;;;5115956;27;20487;-85
2022/12/15 13:09:20;;;;;;;15.38;3.95;;;;;;;;;;5116184;27;20050;-85
2022/12/15 13:11:52;;;;;;;13.55;4.95;;;;;;;;;;5133376;27;20498;-85
2022/12/15 13:14:20;;;;;;;9.32;4.15;;;;;;;;;;5116197;27;20495;-85
2022/12/15 13:16:46;;;;;;;14.07;4.75;;;;;;;;;;5115743;27;20039;-85
2022/12/15 13:19:12;;;;;;;17.30;4.30;;;;;;;;;;5115920;27;20045;-85
2022/12/15 13:21:44;;;;;;;8.00;4.35;;;;;;;;;;5115523;27;20142;-85
2022/12/15 13:24:40;;;;;;;11.02;4.15;;;;;;;;;;5116134;27;20050;-85
2022/12/15 13:27:09;;;;;;;8.40;4.75;;;;;;;;;;5103013;27;20051;-85
2022/12/15 13:29:36;;;;;;;8.60;3.60;;;;;;;;;;5133248;27;20414;-85
2022/12/15 13:32:03;;;;;;;8.07;4.05;;;;;;;;;;5132577;27;20479;-86
2022/12/15 13:34:35;;;;;;;9.52;4.07;;;;;;;;;;5132694;27;20131;-86
2022/12/15 13:37:01;;;;;;;10.45;4.47;;;;;;;;;;5115463;27;20445;-86
2022/12/15 13:39:27;;;;;;;10.73;3.75;;;;;;;;;;5115413;27;20134;-86
2022/12/15 13:41:53;;;;;;;11.32;4.50;;;;;;;;;;5115333;27;20081;-85
2022/12/15 13:44:43;;;;;;;9.95;4.00;;;;;;;;;;5115476;27;20407;-85
2022/12/15 13:47:22;;;;;;;12.20;4.47;;;3.50;99.90;;;;;;5115202;27;20046;-85
2022/12/15 13:49:51;;;;;;;7.65;3.78;;;;;;;;;;5115304;27;20043;-85
2022/12/15 13:52:27;;;;;;;10.93;5.10;;;;;;;;;;5115515;27;20118;-85
2022/12/15 13:54:58;;;;;;;7.82;3.50;;;;;;;;;;5115061;27;20039;-85
2022/12/15 13:57:24;;;;;;;10.80;5.57;;;;;;;;;;5115186;27;20047;-85
2022/12/15 13:59:53;;;;;;;9.90;4.18;;;;;;;;;;5115351;27;20046;-86
2022/12/15 14:02:30;;;;;;;9.25;4.18;;;;;;;;;;5114904;27;20039;-85
2022/12/15 14:05:24;;;;;;;13.25;4.35;;;;;;;;;;5131392;27;20521;-85
2022/12/15 14:07:56;;;;;;;15.13;4.32;;;;;;;;;;5113296;27;20078;-85
2022/12/15 14:10:41;;;;;;;5.88;4.65;;;;;;;;;;5132160;27;20051;-85
2022/12/15 14:13:24;;;;;;;13.60;3.72;;;;;;;;;;5114907;27;20054;-85
2022/12/15 14:16:01;;;;;;;4.95;3.80;;;;;;;;;;5114427;27;20035;-85
2022/12/15 14:18:29;;;;;;;10.77;3.65;;;;;;;;;;5114791;27;20042;-86
2022/12/15 14:20:56;;;;;;;6.20;4.00;;;;;;;;;;5114616;27;20039;-86
2022/12/15 14:23:24;;;;;;;10.20;4.55;;;;;;;;;;5097961;27;20100;-85
2022/12/15 14:25:56;;;;;;;9.32;4.32;;;;;;;;;;5131858;27;20491;-85
2022/12/15 14:28:26;;;;;;;6.60;4.45;;;;;;;;;;5131671;27;20483;-86
2022/12/15 14:30:52;;;;;;;10.65;4.82;;;;;;;;;;5131620;27;20058;-86
2022/12/15 14:33:18;;;;;;;14.25;4.68;;;;;;;;;;5097870;27;20039;-85
2022/12/15 14:35:47;;;;;;;7.43;4.85;;;;;;;;;;5131706;27;20047;-86
2022/12/15 14:38:22;;;;;;;7.55;3.70;;;;;;;;;;5114855;28;20039;-86
2022/12/15 14:40:49;;;;;;;5.00;4.30;;;;;;;;;;5131550;28;20050;-85
2022/12/15 14:43:20;;;;;;;6.13;4.53;;;;;;;;;;5114441;28;20043;-85
2022/12/15 14:45:48;;;;;;;5.68;4.43;;;;;;;;;;5131663;28;20568;-85
2022/12/15 14:48:20;;;;;;;7.25;4.32;;;;;;;;;;5114479;28;20081;-85
2022/12/15 14:50:47;;;;;;;7.28;5.00;;;;;;;;;;5131883;28;20046;-85
2022/12/15 14:53:15;;;;;;;5.43;4.22;;;;;;;;;;5097789;28;20091;-84
2022/12/15 14:55:41;;;;;;;7.10;4.45;;;;;;;;;;5131480;28;20047;-85
2022/12/15 14:58:23;;;;;;;8.57;4.85;;;;;;;;;;5131730;28;20202;-86
2022/12/15 15:00:51;;;;;;;11.90;5.43;;;;;;;;;;5114184;28;20130;-85
2022/12/15 15:03:20;;;;;;;11.02;4.40;;;;;;;;;;5114174;28;20047;-85
2022/12/15 15:05:53;;;;;;;9.13;5.18;;;;;;;;;;5114465;28;20043;-86
2022/12/15 15:08:25;;;;;;;8.82;5.20;;;;;;;;;;5114217;28;20054;-85
2022/12/15 15:10:52;;;;;;;8.60;5.25;;;;;;;;;;5131323;28;20035;-86
2022/12/15 15:13:20;;;;;;;8.15;5.25;;;;;;;;;;5097419;28;20046;-86
2022/12/15 15:15:53;;;;;;;8.48;4.97;;;;;;;;;;5116114;27;20096;-86
2022/12/15 15:18:22;;;;;;;10.65;5.53;;;;;;;;;;5118135;27;20047;-85
2022/12/15 15:20:51;;;;;;;13.02;4.97;;;;;;;;;;5118170;27;20084;-85
2022/12/15 15:23:18;;;;;;;7.32;4.70;;;;;;;;;;5118048;27;20496;-86
2022/12/15 15:25:49;;;;;;;8.73;4.80;;;;;;;;;;5101663;27;20035;-85
2022/12/15 15:28:20;;;;;;;13.73;4.93;;;;;;;;;;5118275;27;20071;-85
2022/12/15 15:30:59;;;;;;;7.20;5.20;;;2.70;99.90;;;;;;5117906;27;20129;-85
2022/12/15 15:33:26;;;;;;;11.68;6.30;;;;;;;;;;5135191;27;20126;-85
2022/12/15 15:35:53;;;;;;;7.78;4.45;;;;;;;;;;5117975;27;20043;-85
2022/12/15 15:38:22;;;;;;;10.40;5.60;;;;;;;;;;5117762;27;20036;-85
2022/12/15 15:40:53;;;;;;;11.32;4.88;;;;;;;;;;5134846;27;20054;-85
2022/12/15 15:43:19;;;;;;;6.63;5.43;;;;;;;;;;5134884;27;20083;-86
2022/12/15 15:45:47;;;;;;;7.80;5.45;;;;;;;;;;5117428;27;20050;-86
2022/12/15 15:48:19;;;;;;;8.23;4.93;;;;;;;;;;5117890;27;20039;-86
2022/12/15 15:50:46;;;;;;;11.55;5.72;;;;;;;;;;5117907;27;20100;-85
2022/12/15 15:53:16;;;;;;;9.52;6.32;;;;;;;;;;5117488;27;20039;-85
2022/12/15 15:55:42;;;;;;;9.35;5.03;;;;;;;;;;5117393;27;20486;-85
2022/12/15 15:58:10;;;;;;;13.48;5.88;;;;;;;;;;5100654;27;20126;-85
2022/12/15 16:00:36;;;;;;;10.23;5.22;;;;;;;;;;5134421;27;20129;-85
2022/12/15 16:03:02;;;;;;;11.88;5.85;;;;;;;;;;5117372;27;20039;-85
2022/12/15 16:05:28;;;;;;;13.18;6.15;;;;;;;;;;5117578;27;20038;-85
2022/12/15 16:07:54;;;;;;;14.40;6.30;;;;;;;;;;5117647;27;20058;-85
2022/12/15 16:10:20;;;;;;;12.88;5.97;;;;;;;;;;5117377;27;20395;-85
2022/12/15 16:12:53;;;;;;;17.95;5.93;;;;;;;;;;5100635;27;20050;-85
2022/12/15 16:15:22;;;;;;;9.00;6.55;;;;;;;;;;5116894;27;20169;-85
2022/12/15 16:17:49;;;;;;;10.75;5.30;;;;;;;;;;5116928;27;20043;-85
2022/12/15 16:20:16;;;;;;;13.20;6.68;;;;;;;;;;5117130;27;20050;-86
2022/12/15 16:22:43;;;;;;;8.32;5.93;;;;;;;;;;5116743;27;20047;-86
2022/12/15 16:25:14;;;;;;;18.67;5.97;;;;;;;;;;5134252;27;20047;-86
2022/12/15 16:27:41;;;;;;;9.80;6.00;;;;;;;;;;5116534;27;20039;-86
2022/12/15 16:30:26;;;;;;;11.02;6.40;;;;;;;;;;5100018;27;20071;-86
2022/12/15 16:32:53;;;;;;;9.18;6.45;;;;;;;;;;5116648;27;20035;-86
2022/12/15 16:35:19;;;;;;;11.43;6.18;;;;;;;;;;5116872;27;20051;-86
2022/12/15 16:37:47;;;;;;;14.80;7.40;;;;;;;;;;5099889;27;20067;-86
2022/12/15 16:40:15;;;;;;;10.05;6.35;;;;;;;;;;5116569;27;20088;-85
2022/12/15 16:42:41;;;;;;;14.60;6.60;;;;;;;;;;5133556;27;20043;-86
2022/12/15 16:45:17;;;;;;;12.55;6.65;;;;;;;;;;5099811;27;20088;-86
2022/12/15 16:47:46;;;;;;;8.57;5.53;;;;;;;;;;5117050;27;20035;-89
2022/12/15 16:50:16;;;;;;;11.43;6.88;;;;;;;;;;5117489;27;20043;-85
2022/12/15 16:52:43;;;;;;;10.35;5.85;;;;;;;;;;5134484;27;20076;-89
2022/12/15 16:55:21;;;;;;;10.02;6.53;;;;;;;;;;5117083;27;20196;-83
2022/12/15 16:57:47;;;;;;;15.30;6.80;;;;;;;;;;5134247;27;20062;-84
2022/12/15 17:00:18;;;;;;;18.48;7.70;;;;;;;;;;5134022;27;20039;-85
2022/12/15 17:02:44;;;;;;;11.73;7.47;;;;;;;;;;5133792;27;20043;-84
2022/12/15 17:05:10;;;;;;;14.68;7.68;;;;;;;;;;5099699;27;20149;-84
2022/12/15 17:07:37;;;;;;;12.63;7.80;;;;;;;;;;5099606;27;20047;-85
2022/12/15 17:10:03;;;;;;;14.02;8.20;;;;;;;;;;5100203;27;20046;-84
2022/12/15 17:12:30;;;;;;;18.67;10.43;;;;;;;;;;5133883;27;20047;-86
2022/12/15 17:14:57;;;;;;;19.13;9.73;;;;;;;;;;5117122;27;20050;-85
2022/12/15 17:17:24;;;;;;;14.50;9.15;;;;;;;;;;5133883;27;20047;-83